Golden Triangle Regional Airport
KGTR : rendu visible

Aérodrome :











RETROUVEZ-NOUS SUR...

 
LOGIN :

S'inscrire | Disclaimer

   EN    FR    IT 

 









Légende :    VFR   VFR Marginal   IFR   IFR Intensif   IFR Très Intensif
Visi : 
Plafond : 
>= 8 km
>= 3000ft
5 à 8 km
1000 à 3000 ft
1500m à 5 km
500 à 1000 ft
800 à 1500m
200 à 500 ft
< 800m
< 200 ft
Symboles :   Orages  Brouillard  Fortes neiges  Fortes précipitations  Vent > 20 kt






- Altitude de l'aérodrome : 264 ft


KGTR - Golden Triangle Regional

DERNIER METAR :
  • 290636Z AUTO 29014G20KT 10SM VCTS OVC025 24/20 A2989 RMK AO2 LTG DSNT SW-N TSB30

METARs EXPIRÉS :
  • 290547Z AUTO 20010KT 10SM BKN027 OVC038 24/21 A2989 RMK AO2
  • 290528Z AUTO 19010KT 10SM SCT027 OVC040 24/21 A2988 RMK AO2
  • 290456Z AUTO 19010KT 10SM OVC027 24/21 A2988 RMK AO2 SLP123 T02390206
  • 290442Z AUTO 18009KT 10SM BKN027 24/21 A2988 RMK AO2
  • 290356Z AUTO 17011KT 10SM CLR 24/20 A2987 RMK AO2 SLP118 T02440200

TAF KGTR
Valide du 29 à 06h jusqu'au 30 à 06h UTC


290526Z 2906/3006 19010KT P6SM VCTS OVC027CB
FM290700 21007KT 5SM TSRA BKN035CB OVC100
FM290900 27006KT P6SM SCT030 OVC100
FM291500 31007KT P6SM FEW030 SCT250



MET'MAP, la Météo Aéronautique d'un coup d'oeil ! - Copyright ORBIFLY Décembre 2007 - Disclaimer

ORBIFLY MET'MAP TEAM :

Programmation & Développement : Alexandra Zaïnal
Sur une idée originale de : Baudouin d'Aumeries
Assistance à la programmation : Marc-Olivier Méhu
Soutien technique & logistique : Manuel Goepfert

Contact : metmap@orbifly.com




SOURCES & CREDITS :

   NOAA       Earth
Advisory